createdAt,value
2019-01-13T00:00:50.684Z,82.65
2019-01-13T00:03:32.227Z,82.41
2019-01-13T00:06:21.093Z,82.58
2019-01-13T00:09:10.153Z,83.23
2019-01-13T00:11:58.968Z,83.11
2019-01-13T00:14:47.815Z,82.33
2019-01-13T00:17:36.624Z,82.28
2019-01-13T00:20:25.409Z,81.98
2019-01-13T00:23:33.310Z,82.26
2019-01-13T00:26:22.112Z,83.28
2019-01-13T00:29:10.917Z,83.05
2019-01-13T00:31:59.718Z,82.56
2019-01-13T00:34:48.543Z,82.90
2019-01-13T00:37:37.333Z,82.81
2019-01-13T00:40:26.135Z,83.67
2019-01-13T00:43:14.920Z,83.92
2019-01-13T00:46:22.838Z,84.30
2019-01-13T00:49:11.624Z,83.87
2019-01-13T00:52:00.531Z,83.32
2019-01-13T00:57:43.592Z,83.22
2019-01-13T01:00:32.469Z,82.16
2019-01-13T01:03:21.248Z,82.52
2019-01-13T01:06:10.125Z,82.00
2019-01-13T01:11:54.910Z,81.68
2019-01-13T01:14:43.713Z,81.73
2019-01-13T01:17:32.501Z,81.98
2019-01-13T01:20:21.294Z,81.25
2019-01-13T01:23:10.101Z,80.55
2019-01-13T01:26:17.924Z,80.53
2019-01-13T01:29:06.980Z,80.23
2019-01-13T01:31:55.762Z,79.88
2019-01-13T01:34:44.570Z,80.01
2019-01-13T01:37:33.358Z,80.17
2019-01-13T01:40:22.223Z,80.88
2019-01-13T01:43:11.045Z,80.10
2019-01-13T01:45:59.832Z,80.84
2019-01-13T01:48:48.638Z,81.64
2019-01-13T01:51:37.429Z,80.90
2019-01-13T01:54:26.232Z,80.99
2019-01-13T01:57:15.044Z,82.37
2019-01-13T02:00:24.747Z,81.02
2019-01-13T02:03:13.552Z,80.74
2019-01-13T02:06:02.341Z,80.04
2019-01-13T02:08:51.147Z,79.41
2019-01-13T02:11:39.945Z,79.48
2019-01-13T02:14:28.750Z,79.24
2019-01-13T02:17:17.561Z,80.07
2019-01-13T02:20:27.257Z,79.45
2019-01-13T02:23:16.061Z,80.14
2019-01-13T02:26:04.923Z,79.23
2019-01-13T02:28:53.731Z,78.84
2019-01-13T02:31:42.532Z,78.28
2019-01-13T02:34:31.349Z,77.72
2019-01-13T02:37:20.148Z,77.94
2019-01-13T02:40:29.862Z,77.93
2019-01-13T02:43:18.672Z,77.68
2019-01-13T02:46:07.467Z,78.35
2019-01-13T02:48:56.276Z,78.28
2019-01-13T02:51:45.056Z,80.66
2019-01-13T02:54:33.870Z,80.68
2019-01-13T02:57:22.756Z,80.79
2019-01-13T03:00:32.460Z,80.61
2019-01-13T03:03:21.263Z,80.40
2019-01-13T03:06:03.399Z,81.46
2019-01-13T03:08:52.184Z,81.38
2019-01-13T03:11:40.993Z,81.35
2019-01-13T03:14:29.786Z,81.05
2019-01-13T03:17:18.592Z,81.01
2019-01-13T03:20:28.293Z,81.00
2019-01-13T03:23:17.097Z,80.72
2019-01-13T03:26:05.956Z,80.82
2019-01-13T03:28:54.700Z,81.19
2019-01-13T03:31:43.506Z,81.04
2019-01-13T03:34:32.297Z,80.78
2019-01-13T03:37:21.115Z,81.43
2019-01-13T03:40:30.821Z,81.91
2019-01-13T03:43:19.611Z,82.26
2019-01-13T03:46:08.411Z,83.50
2019-01-13T03:48:57.213Z,84.12
2019-01-13T03:51:46.000Z,84.85
2019-01-13T03:54:35.128Z,85.54
2019-01-13T03:57:23.915Z,86.35
2019-01-13T04:00:33.626Z,85.95
2019-01-13T04:03:22.416Z,86.18
2019-01-13T04:06:04.285Z,85.38
2019-01-13T04:08:53.071Z,84.94
2019-01-13T04:11:41.876Z,85.56
2019-01-13T04:14:30.696Z,86.01
2019-01-13T04:17:19.778Z,86.14
2019-01-13T04:20:08.634Z,86.13
2019-01-13T04:22:57.456Z,85.83
2019-01-13T04:25:46.250Z,85.33
2019-01-13T04:31:29.846Z,83.94
2019-01-13T04:34:18.656Z,83.71
2019-01-13T04:37:07.460Z,83.53
2019-01-13T04:40:15.367Z,82.94
2019-01-13T04:43:04.222Z,82.90
2019-01-13T04:45:53.033Z,83.51
2019-01-13T04:48:41.821Z,84.22
2019-01-13T04:51:30.641Z,84.39
2019-01-13T04:54:19.435Z,85.35
2019-01-13T04:57:08.241Z,86.64
2019-01-13T04:59:57.027Z,86.53
2019-01-13T05:02:45.910Z,86.66
2019-01-13T05:05:34.702Z,85.38
2019-01-13T05:08:14.840Z,85.16
2019-01-13T05:11:03.633Z,85.67
2019-01-13T05:13:52.439Z,85.71
2019-01-13T05:16:41.259Z,86.52
2019-01-13T05:19:30.065Z,86.71
2019-01-13T05:22:18.870Z,86.23
2019-01-13T05:28:22.790Z,86.97
2019-01-13T05:31:11.580Z,86.95
2019-01-13T05:34:00.404Z,86.16
2019-01-13T05:36:49.196Z,85.67
2019-01-13T05:39:38.022Z,85.83
2019-01-13T05:42:26.855Z,86.70
2019-01-13T05:45:36.562Z,86.01
2019-01-13T05:48:25.395Z,86.39
2019-01-13T05:51:14.192Z,86.06
2019-01-13T05:54:22.414Z,86.48
2019-01-13T05:57:11.200Z,86.61
2019-01-13T06:00:00.004Z,86.50
2019-01-13T06:02:48.803Z,87.66
2019-01-13T06:05:37.729Z,87.74
2019-01-13T06:08:19.795Z,88.38
2019-01-13T06:17:02.271Z,88.25
2019-01-13T06:19:51.117Z,86.92
2019-01-13T06:22:40.002Z,87.08
2019-01-13T06:25:28.780Z,87.50
2019-01-13T06:28:17.703Z,87.07
2019-01-13T06:31:06.495Z,86.08
2019-01-13T06:33:55.385Z,85.28
2019-01-13T06:36:44.189Z,86.08
2019-01-13T06:39:32.994Z,85.45
2019-01-13T06:42:21.816Z,85.56
2019-01-13T06:45:31.542Z,85.19
2019-01-13T06:48:20.346Z,85.15
2019-01-13T06:51:09.431Z,85.85
2019-01-13T06:53:58.242Z,85.87
2019-01-13T06:56:47.061Z,85.34
2019-01-13T06:59:35.843Z,85.90
2019-01-13T07:02:24.647Z,86.53
2019-01-13T07:05:13.564Z,87.83
2019-01-13T07:07:55.417Z,87.87
2019-01-13T07:10:44.238Z,87.78
2019-01-13T07:13:33.146Z,88.44
2019-01-13T07:16:21.927Z,87.97
2019-01-13T07:19:10.741Z,87.87
2019-01-13T07:21:59.528Z,87.35
2019-01-13T07:24:48.347Z,87.58
2019-01-13T07:27:37.133Z,88.47
2019-01-13T07:30:26.102Z,88.62
2019-01-13T07:33:14.917Z,86.94
2019-01-13T07:36:03.729Z,87.38
2019-01-13T07:38:52.535Z,87.91
2019-01-13T07:41:41.348Z,88.01
2019-01-13T07:44:30.131Z,87.71
2019-01-13T07:47:18.933Z,87.90
2019-01-13T07:50:28.656Z,88.10
2019-01-13T07:53:17.463Z,88.65
2019-01-13T07:56:25.283Z,88.59
2019-01-13T07:59:14.090Z,87.92
2019-01-13T08:02:02.879Z,87.75
2019-01-13T08:04:51.692Z,87.79
2019-01-13T08:07:33.671Z,87.98
2019-01-13T08:10:22.554Z,88.11
2019-01-13T08:13:11.340Z,88.38
2019-01-13T08:16:00.140Z,87.51
2019-01-13T08:18:48.950Z,87.51
2019-01-13T08:21:37.750Z,87.58
2019-01-13T08:24:26.576Z,88.21
2019-01-13T08:27:15.361Z,87.95
2019-01-13T08:30:25.074Z,88.65
2019-01-13T08:33:13.869Z,88.86
2019-01-13T08:36:02.698Z,88.34
2019-01-13T08:42:19.914Z,87.94
2019-01-13T08:45:29.614Z,87.74
2019-01-13T08:48:18.418Z,88.01
2019-01-13T08:51:07.229Z,88.24
2019-01-13T08:53:56.049Z,88.17
2019-01-13T08:56:44.842Z,87.92
2019-01-13T08:59:33.649Z,87.99
2019-01-13T09:02:22.451Z,88.03
2019-01-13T09:05:11.270Z,87.88
2019-01-13T09:07:52.538Z,87.52
2019-01-13T09:10:41.361Z,87.21
2019-01-13T09:13:30.171Z,86.61
2019-01-13T09:16:18.985Z,86.83
2019-01-13T09:19:07.783Z,87.03
2019-01-13T09:21:56.608Z,87.02
2019-01-13T09:24:45.390Z,87.53
2019-01-13T09:27:34.204Z,87.62
2019-01-13T09:30:42.308Z,86.67
2019-01-13T09:33:31.133Z,86.92
2019-01-13T09:36:19.923Z,87.05
2019-01-13T09:39:08.888Z,86.53
2019-01-13T09:41:57.698Z,88.38
2019-01-13T09:44:46.563Z,87.77
2019-01-13T09:47:37.216Z,87.86
2019-01-13T09:50:26.194Z,87.27
2019-01-13T09:53:14.998Z,86.95
2019-01-13T09:56:03.817Z,87.89
2019-01-13T09:58:52.619Z,87.83
2019-01-13T10:01:41.443Z,88.29
2019-01-13T10:04:30.238Z,87.27
2019-01-13T10:07:12.210Z,86.73
2019-01-13T10:10:01.017Z,87.01
2019-01-13T10:12:49.839Z,86.99
2019-01-13T10:15:38.710Z,86.91
2019-01-13T10:18:08.451Z,87.18
2019-01-13T10:20:57.254Z,86.78
2019-01-13T10:23:46.084Z,87.09
2019-01-13T10:26:34.880Z,86.91
2019-01-13T10:29:23.697Z,87.00
2019-01-13T10:32:12.490Z,86.56
2019-01-13T10:35:01.297Z,86.13
2019-01-13T10:37:51.541Z,86.24
2019-01-13T10:40:40.763Z,85.76
2019-01-13T10:43:29.564Z,86.07
2019-01-13T10:46:18.382Z,87.31
2019-01-13T10:49:07.201Z,86.51
2019-01-13T10:51:55.983Z,85.79
2019-01-13T10:54:44.777Z,86.27
2019-01-13T10:57:33.606Z,86.04
2019-01-13T11:00:41.784Z,85.67
2019-01-13T11:03:30.594Z,85.31
2019-01-13T11:09:19.739Z,84.88
2019-01-13T11:12:08.578Z,84.84
2019-01-13T11:14:57.539Z,85.07
2019-01-13T11:17:46.729Z,85.23
2019-01-13T11:23:51.271Z,84.65
2019-01-13T11:26:40.292Z,84.23
2019-01-13T11:29:32.798Z,83.56
2019-01-13T11:32:19.806Z,83.53
2019-01-13T11:35:29.600Z,83.42
2019-01-13T11:38:18.462Z,83.59
2019-01-13T11:41:07.588Z,83.84
2019-01-13T11:43:56.417Z,83.83
2019-01-13T11:46:45.228Z,83.41
2019-01-13T11:49:34.014Z,83.92
2019-01-13T11:52:22.828Z,84.27
2019-01-13T11:55:32.520Z,83.91
2019-01-13T11:58:21.319Z,83.68
2019-01-13T12:01:10.208Z,83.59
2019-01-13T12:03:59.005Z,83.44
2019-01-13T12:06:47.827Z,82.89
2019-01-13T12:09:29.979Z,82.60
2019-01-13T12:12:18.796Z,82.27
2019-01-13T12:15:28.803Z,82.53
2019-01-13T12:18:17.667Z,83.61
2019-01-13T12:21:06.542Z,83.38
2019-01-13T12:23:55.405Z,83.05
2019-01-13T12:26:44.221Z,82.49
2019-01-13T12:32:40.769Z,80.79
2019-01-13T12:35:48.602Z,80.92
2019-01-13T12:38:37.561Z,80.95
2019-01-13T12:41:26.479Z,82.48
2019-01-13T12:44:15.300Z,81.15
2019-01-13T12:47:04.339Z,81.38
2019-01-13T12:49:53.142Z,80.61
2019-01-13T12:52:41.969Z,80.76
2019-01-13T12:55:30.775Z,80.70
2019-01-13T12:58:19.573Z,80.77
2019-01-13T13:01:08.402Z,80.24
2019-01-13T13:03:57.213Z,82.20
2019-01-13T13:06:46.015Z,81.46
2019-01-13T13:09:28.053Z,81.04
2019-01-13T13:12:16.857Z,80.88
2019-01-13T13:15:26.563Z,79.88
2019-01-13T13:18:15.370Z,79.61
2019-01-13T13:21:04.308Z,80.26
2019-01-13T13:23:53.176Z,82.06
2019-01-13T13:26:42.002Z,80.71
2019-01-13T13:29:30.810Z,81.36
2019-01-13T13:32:20.056Z,82.48
2019-01-13T13:35:12.076Z,81.64
2019-01-13T13:38:00.899Z,82.56
2019-01-13T13:40:49.702Z,81.92
2019-01-13T13:43:37.472Z,82.38
2019-01-13T13:46:26.353Z,83.33
2019-01-13T13:49:15.171Z,83.95
2019-01-13T13:55:19.262Z,82.60
2019-01-13T13:58:08.119Z,83.57
2019-01-13T14:00:56.924Z,83.19
2019-01-13T14:03:46.163Z,83.26
2019-01-13T14:06:36.250Z,82.37
2019-01-13T14:09:17.562Z,83.01
2019-01-13T14:12:06.357Z,83.14
2019-01-13T14:14:55.137Z,83.79
2019-01-13T14:17:43.948Z,83.82
2019-01-13T14:20:51.783Z,83.71
2019-01-13T14:23:40.580Z,84.62
2019-01-13T14:26:29.399Z,84.28
2019-01-13T14:29:18.182Z,84.93
2019-01-13T14:32:07.000Z,85.04
2019-01-13T14:34:55.786Z,83.96
2019-01-13T14:37:44.657Z,84.87
2019-01-13T14:40:33.451Z,85.08
2019-01-13T14:43:22.257Z,84.98
2019-01-13T14:46:11.413Z,85.65
2019-01-13T14:49:00.220Z,85.52
2019-01-13T14:51:49.021Z,85.15
2019-01-13T14:54:30.538Z,86.38
2019-01-13T14:57:19.339Z,86.68
2019-01-13T15:00:29.524Z,86.98
2019-01-13T15:03:19.304Z,86.70
2019-01-13T15:06:08.477Z,86.45
2019-01-13T15:08:49.740Z,88.19
2019-01-13T15:11:38.600Z,87.31
2019-01-13T15:14:27.395Z,87.15
2019-01-13T15:17:16.208Z,86.63
2019-01-13T15:20:25.940Z,87.24
2019-01-13T15:23:14.760Z,87.26
2019-01-13T15:28:59.379Z,88.55
2019-01-13T15:31:48.193Z,86.84
2019-01-13T15:37:44.752Z,87.08
2019-01-13T15:40:33.537Z,86.30
2019-01-13T15:43:22.354Z,86.24
2019-01-13T15:46:11.250Z,86.83
2019-01-13T15:51:54.783Z,85.82
2019-01-13T15:54:36.840Z,85.25
2019-01-13T15:57:25.647Z,85.66
2019-01-13T16:00:35.358Z,85.83
2019-01-13T16:03:24.153Z,85.44
2019-01-13T16:06:12.980Z,84.13
2019-01-13T16:09:01.805Z,85.40
2019-01-13T16:11:50.638Z,85.27
2019-01-13T16:14:39.446Z,85.30
2019-01-13T16:17:28.522Z,85.47
2019-01-13T16:20:38.252Z,87.08
2019-01-13T16:23:27.040Z,86.74
2019-01-13T16:26:15.849Z,86.22
2019-01-13T16:29:04.632Z,85.91
2019-01-13T16:31:53.443Z,86.54
2019-01-13T16:34:42.276Z,87.59
2019-01-13T16:37:31.138Z,86.98
2019-01-13T16:40:40.852Z,86.18
2019-01-13T16:43:29.805Z,85.57
2019-01-13T16:46:18.717Z,86.16
2019-01-13T16:49:07.944Z,86.30
2019-01-13T16:51:57.097Z,85.14
2019-01-13T16:54:38.822Z,85.82
2019-01-13T16:57:27.748Z,85.18
2019-01-13T17:00:37.503Z,84.70
2019-01-13T17:03:26.438Z,82.76
2019-01-13T17:06:15.270Z,81.36
2019-01-13T17:09:25.020Z,80.76
2019-01-13T17:12:07.173Z,80.26
2019-01-13T17:14:56.313Z,79.87
2019-01-13T17:17:45.734Z,79.97
2019-01-13T17:20:35.228Z,81.16
2019-01-13T17:23:24.570Z,81.34
2019-01-13T17:26:14.156Z,80.42
2019-01-13T17:29:03.739Z,82.79
2019-01-13T17:31:52.675Z,80.41
2019-01-13T17:34:41.478Z,80.98
2019-01-13T17:37:30.398Z,80.79
2019-01-13T17:40:40.100Z,80.89
2019-01-13T17:43:29.230Z,80.54
2019-01-13T17:46:18.025Z,81.29
2019-01-13T17:49:06.940Z,81.38
2019-01-13T17:51:55.852Z,81.77
2019-01-13T17:54:38.362Z,81.94
2019-01-13T17:57:27.209Z,82.58
2019-01-13T18:00:37.119Z,82.66
2019-01-13T18:03:47.035Z,84.55
2019-01-13T18:06:36.349Z,83.96
2019-01-13T18:09:25.935Z,84.93
2019-01-13T18:12:07.788Z,83.78
2019-01-13T18:14:57.201Z,83.18
2019-01-13T18:17:46.543Z,81.47
2019-01-13T18:23:45.417Z,80.42
2019-01-13T18:26:34.359Z,80.45
2019-01-13T18:29:23.356Z,80.55
2019-01-13T18:32:12.561Z,80.91
2019-01-13T18:35:02.037Z,83.62
2019-01-13T18:38:10.721Z,83.47
2019-01-13T18:41:00.518Z,84.20
2019-01-13T18:43:50.363Z,85.24
2019-01-13T18:49:37.875Z,86.56
2019-01-13T18:52:27.634Z,87.49
2019-01-13T18:58:45.468Z,85.18
2019-01-13T19:01:23.070Z,85.41
2019-01-13T19:04:12.862Z,85.55
2019-01-13T19:07:19.110Z,84.37
2019-01-13T19:09:48.661Z,83.82
2019-01-13T19:46:36.266Z,80.96
2019-01-13T19:49:26.223Z,79.61
2019-01-13T20:01:55.254Z,77.42
2019-01-13T20:05:04.017Z,77.41
2019-01-13T20:11:01.861Z,77.61
2019-01-13T20:14:25.193Z,77.42
2019-01-13T20:20:33.053Z,76.92
2019-01-13T20:23:34.635Z,77.61
2019-01-13T20:35:52.053Z,76.68
2019-01-13T20:42:29.482Z,75.21
2019-01-13T20:45:55.614Z,76.53
2019-01-13T20:48:33.060Z,75.57
2019-01-13T20:51:23.077Z,76.16
2019-01-13T20:54:31.784Z,74.83
2019-01-13T20:57:21.880Z,74.76
2019-01-13T21:00:44.213Z,75.11
2019-01-13T21:09:11.438Z,77.65
2019-01-13T21:12:15.382Z,77.67
2019-01-13T21:21:38.476Z,76.28
2019-01-13T21:33:49.499Z,76.78
2019-01-13T21:36:53.440Z,77.83
2019-01-13T21:45:39.882Z,76.83
2019-01-13T21:48:29.997Z,77.46
2019-01-13T21:54:10.902Z,78.91
2019-01-13T21:56:56.772Z,79.44
2019-01-13T21:59:45.569Z,79.20
2019-01-13T22:02:34.395Z,80.02
2019-01-13T22:08:56.058Z,78.77
2019-01-13T22:11:42.398Z,78.48
2019-01-13T22:14:31.224Z,80.51
2019-01-13T22:17:20.024Z,80.92
2019-01-13T22:20:29.745Z,81.91
2019-01-13T22:23:18.540Z,84.40
2019-01-13T22:29:02.469Z,84.18
2019-01-13T22:31:51.280Z,84.10
2019-01-13T22:34:40.121Z,83.90
2019-01-13T22:37:28.919Z,83.21
2019-01-13T22:43:33.694Z,82.50
2019-01-13T22:46:22.625Z,81.79
2019-01-13T22:49:11.434Z,82.08
2019-01-13T22:52:00.246Z,82.43
2019-01-13T22:54:42.352Z,82.90
2019-01-13T22:57:31.137Z,81.43
2019-01-13T23:00:59.898Z,82.14
2019-01-13T23:06:58.149Z,81.05
2019-01-13T23:09:46.971Z,82.37
2019-01-13T23:12:35.791Z,83.10
2019-01-13T23:15:24.661Z,83.83
2019-01-13T23:18:13.474Z,83.20
2019-01-13T23:21:02.269Z,83.05
2019-01-13T23:23:51.132Z,84.75
2019-01-13T23:26:39.926Z,84.24
2019-01-13T23:29:28.761Z,85.43
2019-01-13T23:32:17.827Z,84.75
2019-01-13T23:35:06.815Z,83.81
2019-01-13T23:37:55.599Z,84.39
2019-01-13T23:40:44.419Z,84.07
2019-01-13T23:46:41.049Z,84.25
2019-01-13T23:52:37.666Z,83.55
2019-01-13T23:55:19.319Z,84.30
2019-01-13T23:58:08.150Z,82.55
